sensor_id;sensor_type;location;lat;lon;timestamp;temperature;humidity
52889;DHT22;41413;52.770;6.892;2023-02-01T00:00:54;5.00;99.90
52889;DHT22;41413;52.770;6.892;2023-02-01T00:03:21;5.10;99.90
52889;DHT22;41413;52.770;6.892;2023-02-01T00:05:56;5.10;99.90
52889;DHT22;41413;52.770;6.892;2023-02-01T00:08:23;5.10;99.90
52889;DHT22;41413;52.770;6.892;2023-02-01T00:11:01;5.10;99.90
52889;DHT22;41413;52.770;6.892;2023-02-01T00:13:33;5.20;99.90
52889;DHT22;41413;52.770;6.892;2023-02-01T00:16:08;5.30;99.90
52889;DHT22;41413;52.770;6.892;2023-02-01T00:18:36;5.30;99.90
52889;DHT22;41413;52.770;6.892;2023-02-01T00:21:03;5.30;99.90
52889;DHT22;41413;52.770;6.892;2023-02-01T00:23:33;5.40;99.90
52889;DHT22;41413;52.770;6.892;2023-02-01T00:26:04;5.40;99.90
52889;DHT22;41413;52.770;6.892;2023-02-01T00:28:32;5.40;99.90
52889;DHT22;41413;52.770;6.892;2023-02-01T00:31:00;5.40;99.90
52889;DHT22;41413;52.770;6.892;2023-02-01T00:33:28;5.40;99.90
52889;DHT22;41413;52.770;6.892;2023-02-01T00:35:59;5.40;99.90
52889;DHT22;41413;52.770;6.892;2023-02-01T00:38:28;5.40;99.90
52889;DHT22;41413;52.770;6.892;2023-02-01T00:41:01;5.40;99.90
52889;DHT22;41413;52.770;6.892;2023-02-01T00:43:28;5.40;99.90
52889;DHT22;41413;52.770;6.892;2023-02-01T00:45:56;5.40;99.90
52889;DHT22;41413;52.770;6.892;2023-02-01T00:48:23;5.40;99.90
52889;DHT22;41413;52.770;6.892;2023-02-01T00:50:50;5.40;99.90
52889;DHT22;41413;52.770;6.892;2023-02-01T00:53:17;5.40;99.90
52889;DHT22;41413;52.770;6.892;2023-02-01T00:55:47;5.50;99.90
52889;DHT22;41413;52.770;6.892;2023-02-01T00:58:14;5.50;99.90
52889;DHT22;41413;52.770;6.892;2023-02-01T01:00:41;5.50;99.90
52889;DHT22;41413;52.770;6.892;2023-02-01T01:03:08;5.50;99.90
52889;DHT22;41413;52.770;6.892;2023-02-01T01:05:48;5.50;99.90
52889;DHT22;41413;52.770;6.892;2023-02-01T01:08:16;5.50;99.90
52889;DHT22;41413;52.770;6.892;2023-02-01T01:10:43;5.50;99.90
52889;DHT22;41413;52.770;6.892;2023-02-01T01:13:11;5.50;99.90
52889;DHT22;41413;52.770;6.892;2023-02-01T01:15:39;5.50;99.90
52889;DHT22;41413;52.770;6.892;2023-02-01T01:18:06;5.60;99.90
52889;DHT22;41413;52.770;6.892;2023-02-01T01:20:38;5.50;99.90
52889;DHT22;41413;52.770;6.892;2023-02-01T01:23:06;5.50;99.90
52889;DHT22;41413;52.770;6.892;2023-02-01T01:25:36;5.50;99.90
52889;DHT22;41413;52.770;6.892;2023-02-01T01:28:03;5.50;99.90
52889;DHT22;41413;52.770;6.892;2023-02-01T01:30:29;5.50;99.90
52889;DHT22;41413;52.770;6.892;2023-02-01T01:32:56;5.50;99.90
52889;DHT22;41413;52.770;6.892;2023-02-01T01:35:23;5.50;99.90
52889;DHT22;41413;52.770;6.892;2023-02-01T01:37:50;5.50;99.90
52889;DHT22;41413;52.770;6.892;2023-02-01T01:40:17;5.50;99.90
52889;DHT22;41413;52.770;6.892;2023-02-01T01:42:44;5.50;99.90
52889;DHT22;41413;52.770;6.892;2023-02-01T01:45:31;5.50;99.90
52889;DHT22;41413;52.770;6.892;2023-02-01T01:48:01;5.50;99.90
52889;DHT22;41413;52.770;6.892;2023-02-01T01:50:33;5.50;99.90
52889;DHT22;41413;52.770;6.892;2023-02-01T01:53:04;5.40;99.90
52889;DHT22;41413;52.770;6.892;2023-02-01T01:55:35;5.40;99.90
52889;DHT22;41413;52.770;6.892;2023-02-01T01:58:25;5.40;99.90
52889;DHT22;41413;52.770;6.892;2023-02-01T02:00:53;5.40;99.90
52889;DHT22;41413;52.770;6.892;2023-02-01T02:03:22;5.50;99.90
52889;DHT22;41413;52.770;6.892;2023-02-01T02:05:54;5.50;99.90
52889;DHT22;41413;52.770;6.892;2023-02-01T02:08:23;5.50;99.90
52889;DHT22;41413;52.770;6.892;2023-02-01T02:10:51;5.50;99.90
52889;DHT22;41413;52.770;6.892;2023-02-01T02:13:39;5.50;99.90
52889;DHT22;41413;52.770;6.892;2023-02-01T02:22:17;5.50;99.90
52889;DHT22;41413;52.770;6.892;2023-02-01T02:31:06;5.40;99.90
52889;DHT22;41413;52.770;6.892;2023-02-01T02:38:50;5.40;99.90
52889;DHT22;41413;52.770;6.892;2023-02-01T02:44:32;5.50;99.90
52889;DHT22;41413;52.770;6.892;2023-02-01T02:47:33;5.40;99.90
52889;DHT22;41413;52.770;6.892;2023-02-01T02:50:09;5.40;99.90
52889;DHT22;41413;52.770;6.892;2023-02-01T02:53:21;5.30;99.90
52889;DHT22;41413;52.770;6.892;2023-02-01T02:56:09;5.30;99.90
52889;DHT22;41413;52.770;6.892;2023-02-01T02:58:55;5.30;99.90
52889;DHT22;41413;52.770;6.892;2023-02-01T03:01:42;5.30;99.90
52889;DHT22;41413;52.770;6.892;2023-02-01T03:04:28;5.30;99.90
52889;DHT22;41413;52.770;6.892;2023-02-01T03:06:55;5.20;99.90
52889;DHT22;41413;52.770;6.892;2023-02-01T03:09:32;5.30;99.90
52889;DHT22;41413;52.770;6.892;2023-02-01T03:12:06;5.30;99.90
52889;DHT22;41413;52.770;6.892;2023-02-01T03:14:57;5.20;99.90
52889;DHT22;41413;52.770;6.892;2023-02-01T03:17:31;5.20;99.90
52889;DHT22;41413;52.770;6.892;2023-02-01T03:20:01;5.20;99.90
52889;DHT22;41413;52.770;6.892;2023-02-01T03:22:30;5.20;99.90
52889;DHT22;41413;52.770;6.892;2023-02-01T03:25:05;5.20;99.90
52889;DHT22;41413;52.770;6.892;2023-02-01T03:30:21;5.20;99.90
52889;DHT22;41413;52.770;6.892;2023-02-01T03:32:52;5.20;99.90
52889;DHT22;41413;52.770;6.892;2023-02-01T03:36:49;5.20;99.90
52889;DHT22;41413;52.770;6.892;2023-02-01T03:43:55;5.20;99.90
52889;DHT22;41413;52.770;6.892;2023-02-01T03:47:10;5.10;99.90
52889;DHT22;41413;52.770;6.892;2023-02-01T03:49:27;5.20;99.90
52889;DHT22;41413;52.770;6.892;2023-02-01T03:51:56;5.20;99.90
52889;DHT22;41413;52.770;6.892;2023-02-01T03:54:26;5.30;99.90
52889;DHT22;41413;52.770;6.892;2023-02-01T03:56:56;5.30;99.90
52889;DHT22;41413;52.770;6.892;2023-02-01T03:59:24;5.30;99.90
52889;DHT22;41413;52.770;6.892;2023-02-01T04:01:51;5.30;99.90
52889;DHT22;41413;52.770;6.892;2023-02-01T04:04:19;5.40;99.90
52889;DHT22;41413;52.770;6.892;2023-02-01T04:06:49;5.30;99.90
52889;DHT22;41413;52.770;6.892;2023-02-01T04:09:16;5.30;99.90
52889;DHT22;41413;52.770;6.892;2023-02-01T04:11:43;5.30;99.90
52889;DHT22;41413;52.770;6.892;2023-02-01T04:14:10;5.30;99.90
52889;DHT22;41413;52.770;6.892;2023-02-01T04:16:37;5.30;99.90
52889;DHT22;41413;52.770;6.892;2023-02-01T04:19:03;5.30;99.90
52889;DHT22;41413;52.770;6.892;2023-02-01T04:21:30;5.30;99.90
52889;DHT22;41413;52.770;6.892;2023-02-01T04:23:57;5.30;99.90
52889;DHT22;41413;52.770;6.892;2023-02-01T04:26:24;5.30;99.90
52889;DHT22;41413;52.770;6.892;2023-02-01T04:28:51;5.30;99.90
52889;DHT22;41413;52.770;6.892;2023-02-01T04:31:19;5.40;99.90
52889;DHT22;41413;52.770;6.892;2023-02-01T04:33:52;5.30;99.90
52889;DHT22;41413;52.770;6.892;2023-02-01T04:36:20;5.30;99.90
52889;DHT22;41413;52.770;6.892;2023-02-01T04:38:53;5.40;99.90
52889;DHT22;41413;52.770;6.892;2023-02-01T04:41:20;5.40;99.90
52889;DHT22;41413;52.770;6.892;2023-02-01T04:43:48;5.40;99.90
52889;DHT22;41413;52.770;6.892;2023-02-01T04:46:15;5.50;99.90
52889;DHT22;41413;52.770;6.892;2023-02-01T04:48:42;5.50;99.90
52889;DHT22;41413;52.770;6.892;2023-02-01T04:51:10;5.40;99.90
52889;DHT22;41413;52.770;6.892;2023-02-01T04:53:37;5.50;99.90
52889;DHT22;41413;52.770;6.892;2023-02-01T04:56:04;5.50;99.90
52889;DHT22;41413;52.770;6.892;2023-02-01T04:58:31;5.50;99.90
52889;DHT22;41413;52.770;6.892;2023-02-01T05:00:57;5.40;99.90
52889;DHT22;41413;52.770;6.892;2023-02-01T05:03:24;5.50;99.90
52889;DHT22;41413;52.770;6.892;2023-02-01T05:05:51;5.50;99.90
52889;DHT22;41413;52.770;6.892;2023-02-01T05:08:20;5.50;99.90
52889;DHT22;41413;52.770;6.892;2023-02-01T05:10:48;5.50;99.90
52889;DHT22;41413;52.770;6.892;2023-02-01T05:13:15;5.50;99.90
52889;DHT22;41413;52.770;6.892;2023-02-01T05:16:01;5.50;99.90
52889;DHT22;41413;52.770;6.892;2023-02-01T05:18:27;5.60;99.90
52889;DHT22;41413;52.770;6.892;2023-02-01T05:20:55;5.60;99.90
52889;DHT22;41413;52.770;6.892;2023-02-01T05:23:22;5.60;99.90
52889;DHT22;41413;52.770;6.892;2023-02-01T05:25:48;5.60;99.90
52889;DHT22;41413;52.770;6.892;2023-02-01T05:28:15;5.60;99.90
52889;DHT22;41413;52.770;6.892;2023-02-01T05:30:42;5.60;99.90
52889;DHT22;41413;52.770;6.892;2023-02-01T05:33:08;5.60;99.90
52889;DHT22;41413;52.770;6.892;2023-02-01T05:35:35;5.60;99.90
52889;DHT22;41413;52.770;6.892;2023-02-01T05:38:02;5.70;99.90
52889;DHT22;41413;52.770;6.892;2023-02-01T05:40:28;5.70;99.90
52889;DHT22;41413;52.770;6.892;2023-02-01T05:42:55;5.70;99.90
52889;DHT22;41413;52.770;6.892;2023-02-01T05:45:22;5.60;99.90
52889;DHT22;41413;52.770;6.892;2023-02-01T05:47:49;5.70;99.90
52889;DHT22;41413;52.770;6.892;2023-02-01T05:50:16;5.70;99.90
52889;DHT22;41413;52.770;6.892;2023-02-01T05:52:43;5.60;99.90
52889;DHT22;41413;52.770;6.892;2023-02-01T05:55:09;5.70;99.90
52889;DHT22;41413;52.770;6.892;2023-02-01T05:57:36;5.70;99.90
52889;DHT22;41413;52.770;6.892;2023-02-01T06:00:03;5.70;99.90
52889;DHT22;41413;52.770;6.892;2023-02-01T06:02:30;5.70;99.90
52889;DHT22;41413;52.770;6.892;2023-02-01T06:04:57;5.70;99.90
52889;DHT22;41413;52.770;6.892;2023-02-01T06:07:24;5.70;99.90
52889;DHT22;41413;52.770;6.892;2023-02-01T06:09:50;5.70;99.90
52889;DHT22;41413;52.770;6.892;2023-02-01T06:12:17;5.70;99.90
52889;DHT22;41413;52.770;6.892;2023-02-01T06:14:43;5.80;99.90
52889;DHT22;41413;52.770;6.892;2023-02-01T06:17:11;5.80;99.90
52889;DHT22;41413;52.770;6.892;2023-02-01T06:19:38;5.90;99.90
52889;DHT22;41413;52.770;6.892;2023-02-01T06:22:06;5.80;99.90
52889;DHT22;41413;52.770;6.892;2023-02-01T06:24:33;5.80;99.90
52889;DHT22;41413;52.770;6.892;2023-02-01T06:27:00;5.90;99.90
52889;DHT22;41413;52.770;6.892;2023-02-01T06:29:26;5.90;99.90
52889;DHT22;41413;52.770;6.892;2023-02-01T06:31:53;5.90;99.90
52889;DHT22;41413;52.770;6.892;2023-02-01T06:34:20;5.90;99.90
52889;DHT22;41413;52.770;6.892;2023-02-01T06:36:48;6.00;99.90
52889;DHT22;41413;52.770;6.892;2023-02-01T06:39:15;6.00;99.90
52889;DHT22;41413;52.770;6.892;2023-02-01T06:41:46;5.90;99.90
52889;DHT22;41413;52.770;6.892;2023-02-01T06:44:13;5.90;99.90
52889;DHT22;41413;52.770;6.892;2023-02-01T06:46:40;5.90;99.90
52889;DHT22;41413;52.770;6.892;2023-02-01T06:49:07;5.90;99.90
52889;DHT22;41413;52.770;6.892;2023-02-01T06:51:34;5.90;99.90
52889;DHT22;41413;52.770;6.892;2023-02-01T06:54:01;5.90;99.90
52889;DHT22;41413;52.770;6.892;2023-02-01T06:56:27;5.90;99.90
52889;DHT22;41413;52.770;6.892;2023-02-01T06:58:54;5.90;99.90
52889;DHT22;41413;52.770;6.892;2023-02-01T07:01:21;5.90;99.90
52889;DHT22;41413;52.770;6.892;2023-02-01T07:03:49;5.90;99.90
52889;DHT22;41413;52.770;6.892;2023-02-01T07:06:18;5.90;99.90
52889;DHT22;41413;52.770;6.892;2023-02-01T07:08:44;6.10;99.90
52889;DHT22;41413;52.770;6.892;2023-02-01T07:11:13;6.00;99.90
52889;DHT22;41413;52.770;6.892;2023-02-01T07:13:40;6.00;99.90
52889;DHT22;41413;52.770;6.892;2023-02-01T07:16:11;6.00;99.90
52889;DHT22;41413;52.770;6.892;2023-02-01T07:18:38;5.90;99.90
52889;DHT22;41413;52.770;6.892;2023-02-01T07:21:05;6.00;99.90
52889;DHT22;41413;52.770;6.892;2023-02-01T07:23:32;6.00;99.90
52889;DHT22;41413;52.770;6.892;2023-02-01T07:26:01;6.00;99.90
52889;DHT22;41413;52.770;6.892;2023-02-01T07:28:32;6.10;99.90
52889;DHT22;41413;52.770;6.892;2023-02-01T07:31:11;6.20;99.90
52889;DHT22;41413;52.770;6.892;2023-02-01T07:33:38;6.10;99.90
52889;DHT22;41413;52.770;6.892;2023-02-01T07:36:06;6.10;99.90
52889;DHT22;41413;52.770;6.892;2023-02-01T07:38:33;6.10;99.90
52889;DHT22;41413;52.770;6.892;2023-02-01T07:41:01;6.00;99.90
52889;DHT22;41413;52.770;6.892;2023-02-01T07:43:29;6.00;99.90
52889;DHT22;41413;52.770;6.892;2023-02-01T07:45:56;6.10;99.90
52889;DHT22;41413;52.770;6.892;2023-02-01T07:48:23;6.10;99.90
52889;DHT22;41413;52.770;6.892;2023-02-01T07:51:16;6.10;99.90
52889;DHT22;41413;52.770;6.892;2023-02-01T07:53:44;6.10;99.90
52889;DHT22;41413;52.770;6.892;2023-02-01T07:56:18;6.10;99.90
52889;DHT22;41413;52.770;6.892;2023-02-01T07:58:49;6.10;99.90
52889;DHT22;41413;52.770;6.892;2023-02-01T08:01:24;6.10;99.90
52889;DHT22;41413;52.770;6.892;2023-02-01T08:03:54;6.10;99.90
52889;DHT22;41413;52.770;6.892;2023-02-01T08:06:21;6.20;99.90
52889;DHT22;41413;52.770;6.892;2023-02-01T08:08:49;6.20;99.90
52889;DHT22;41413;52.770;6.892;2023-02-01T08:11:17;6.10;99.90
52889;DHT22;41413;52.770;6.892;2023-02-01T08:13:45;6.20;99.90
52889;DHT22;41413;52.770;6.892;2023-02-01T08:16:13;6.10;99.90
52889;DHT22;41413;52.770;6.892;2023-02-01T08:18:40;6.20;99.90
52889;DHT22;41413;52.770;6.892;2023-02-01T08:21:19;6.20;99.90
52889;DHT22;41413;52.770;6.892;2023-02-01T08:23:46;6.20;99.90
52889;DHT22;41413;52.770;6.892;2023-02-01T08:28:43;6.30;99.90
52889;DHT22;41413;52.770;6.892;2023-02-01T08:31:15;6.40;99.90
52889;DHT22;41413;52.770;6.892;2023-02-01T08:33:43;6.60;99.90
52889;DHT22;41413;52.770;6.892;2023-02-01T08:36:11;6.40;99.90
52889;DHT22;41413;52.770;6.892;2023-02-01T08:38:38;6.50;99.90
52889;DHT22;41413;52.770;6.892;2023-02-01T08:41:26;6.40;99.90
52889;DHT22;41413;52.770;6.892;2023-02-01T08:43:53;6.40;99.90
52889;DHT22;41413;52.770;6.892;2023-02-01T08:46:21;6.30;99.90
52889;DHT22;41413;52.770;6.892;2023-02-01T08:48:48;6.20;99.90
52889;DHT22;41413;52.770;6.892;2023-02-01T08:51:17;6.20;99.90
52889;DHT22;41413;52.770;6.892;2023-02-01T08:53:44;6.30;99.90
52889;DHT22;41413;52.770;6.892;2023-02-01T08:56:12;6.30;99.90
52889;DHT22;41413;52.770;6.892;2023-02-01T08:58:39;6.30;99.90
52889;DHT22;41413;52.770;6.892;2023-02-01T09:01:11;6.40;99.90
52889;DHT22;41413;52.770;6.892;2023-02-01T09:03:39;6.30;99.90
52889;DHT22;41413;52.770;6.892;2023-02-01T09:06:11;6.30;99.90
52889;DHT22;41413;52.770;6.892;2023-02-01T09:08:39;6.40;99.90
52889;DHT22;41413;52.770;6.892;2023-02-01T09:11:10;6.40;99.90
52889;DHT22;41413;52.770;6.892;2023-02-01T09:13:37;6.30;99.90
52889;DHT22;41413;52.770;6.892;2023-02-01T09:16:05;6.40;99.90
52889;DHT22;41413;52.770;6.892;2023-02-01T09:18:32;6.40;99.90
52889;DHT22;41413;52.770;6.892;2023-02-01T09:20:58;6.30;99.90
52889;DHT22;41413;52.770;6.892;2023-02-01T09:23:25;6.30;99.90
52889;DHT22;41413;52.770;6.892;2023-02-01T09:25:52;6.30;99.90
52889;DHT22;41413;52.770;6.892;2023-02-01T09:28:19;6.40;99.90
52889;DHT22;41413;52.770;6.892;2023-02-01T09:30:46;6.30;99.90
52889;DHT22;41413;52.770;6.892;2023-02-01T09:33:13;6.40;99.90
52889;DHT22;41413;52.770;6.892;2023-02-01T09:35:40;6.30;99.90
52889;DHT22;41413;52.770;6.892;2023-02-01T09:38:06;6.30;99.90
52889;DHT22;41413;52.770;6.892;2023-02-01T09:40:36;6.30;99.90
52889;DHT22;41413;52.770;6.892;2023-02-01T09:48:39;6.40;99.90
52889;DHT22;41413;52.770;6.892;2023-02-01T09:51:14;6.40;99.90
52889;DHT22;41413;52.770;6.892;2023-02-01T09:53:44;6.40;99.90
52889;DHT22;41413;52.770;6.892;2023-02-01T09:56:17;6.30;99.90
52889;DHT22;41413;52.770;6.892;2023-02-01T09:59:10;6.30;99.90
52889;DHT22;41413;52.770;6.892;2023-02-01T10:01:39;6.30;99.90
52889;DHT22;41413;52.770;6.892;2023-02-01T10:04:12;6.20;99.90
52889;DHT22;41413;52.770;6.892;2023-02-01T10:07:10;6.20;99.90
52889;DHT22;41413;52.770;6.892;2023-02-01T10:09:42;6.20;99.90
52889;DHT22;41413;52.770;6.892;2023-02-01T10:15:15;6.20;99.90
52889;DHT22;41413;52.770;6.892;2023-02-01T10:26:22;5.90;99.90
52889;DHT22;41413;52.770;6.892;2023-02-01T10:28:55;5.90;99.90
52889;DHT22;41413;52.770;6.892;2023-02-01T10:31:25;5.90;99.90
52889;DHT22;41413;52.770;6.892;2023-02-01T10:33:57;5.90;99.90
52889;DHT22;41413;52.770;6.892;2023-02-01T10:36:41;5.90;99.90
52889;DHT22;41413;52.770;6.892;2023-02-01T10:39:11;5.80;99.90
52889;DHT22;41413;52.770;6.892;2023-02-01T10:41:39;5.90;99.90
52889;DHT22;41413;52.770;6.892;2023-02-01T10:44:27;5.80;99.90
52889;DHT22;41413;52.770;6.892;2023-02-01T10:46:55;5.80;99.90
52889;DHT22;41413;52.770;6.892;2023-02-01T10:49:37;5.80;99.90
52889;DHT22;41413;52.770;6.892;2023-02-01T10:52:16;5.80;99.90
52889;DHT22;41413;52.770;6.892;2023-02-01T10:54:43;5.90;99.90
52889;DHT22;41413;52.770;6.892;2023-02-01T10:57:22;5.90;99.90
52889;DHT22;41413;52.770;6.892;2023-02-01T10:59:51;5.90;99.90
52889;DHT22;41413;52.770;6.892;2023-02-01T11:02:32;5.80;99.90
52889;DHT22;41413;52.770;6.892;2023-02-01T11:05:10;5.80;99.90
52889;DHT22;41413;52.770;6.892;2023-02-01T11:07:39;5.70;99.90
52889;DHT22;41413;52.770;6.892;2023-02-01T11:10:35;5.70;99.90
52889;DHT22;41413;52.770;6.892;2023-02-01T11:13:03;5.80;99.90
52889;DHT22;41413;52.770;6.892;2023-02-01T11:15:30;5.70;99.90
52889;DHT22;41413;52.770;6.892;2023-02-01T11:18:14;5.80;99.90
52889;DHT22;41413;52.770;6.892;2023-02-01T11:20:42;5.80;99.90
52889;DHT22;41413;52.770;6.892;2023-02-01T11:23:20;5.90;99.90
52889;DHT22;41413;52.770;6.892;2023-02-01T11:28:21;5.90;99.90
52889;DHT22;41413;52.770;6.892;2023-02-01T11:30:48;5.80;99.90
52889;DHT22;41413;52.770;6.892;2023-02-01T11:33:25;5.90;99.90
52889;DHT22;41413;52.770;6.892;2023-02-01T11:35:57;5.80;99.90
52889;DHT22;41413;52.770;6.892;2023-02-01T11:38:30;5.90;99.90
52889;DHT22;41413;52.770;6.892;2023-02-01T11:41:23;5.90;99.90
52889;DHT22;41413;52.770;6.892;2023-02-01T11:43:58;5.90;99.90
52889;DHT22;41413;52.770;6.892;2023-02-01T11:46:34;6.00;99.90
52889;DHT22;41413;52.770;6.892;2023-02-01T11:49:28;6.00;99.90
52889;DHT22;41413;52.770;6.892;2023-02-01T11:57:50;6.00;99.90
52889;DHT22;41413;52.770;6.892;2023-02-01T12:00:50;6.20;99.90
52889;DHT22;41413;52.770;6.892;2023-02-01T12:03:44;6.10;99.90
52889;DHT22;41413;52.770;6.892;2023-02-01T12:06:35;6.20;99.90
52889;DHT22;41413;52.770;6.892;2023-02-01T12:12:02;6.20;99.90
52889;DHT22;41413;52.770;6.892;2023-02-01T12:15:04;6.10;99.90
52889;DHT22;41413;52.770;6.892;2023-02-01T12:21:05;6.30;99.90
52889;DHT22;41413;52.770;6.892;2023-02-01T12:23:45;6.30;99.90
52889;DHT22;41413;52.770;6.892;2023-02-01T12:29:23;6.20;99.90
52889;DHT22;41413;52.770;6.892;2023-02-01T12:32:11;6.20;99.90
52889;DHT22;41413;52.770;6.892;2023-02-01T12:46:20;6.40;99.90
52889;DHT22;41413;52.770;6.892;2023-02-01T12:49:01;6.50;99.90
52889;DHT22;41413;52.770;6.892;2023-02-01T12:51:33;6.40;99.90
52889;DHT22;41413;52.770;6.892;2023-02-01T12:54:02;6.50;99.90
52889;DHT22;41413;52.770;6.892;2023-02-01T12:56:37;6.50;99.90
52889;DHT22;41413;52.770;6.892;2023-02-01T12:59:17;6.60;99.90
52889;DHT22;41413;52.770;6.892;2023-02-01T13:01:46;6.70;99.90
52889;DHT22;41413;52.770;6.892;2023-02-01T13:04:20;6.80;99.90
52889;DHT22;41413;52.770;6.892;2023-02-01T13:10:15;7.00;99.90
52889;DHT22;41413;52.770;6.892;2023-02-01T13:13:11;7.40;99.90
52889;DHT22;41413;52.770;6.892;2023-02-01T13:18:23;7.60;99.90
52889;DHT22;41413;52.770;6.892;2023-02-01T13:21:03;7.60;99.90
52889;DHT22;41413;52.770;6.892;2023-02-01T13:23:39;7.60;99.90
52889;DHT22;41413;52.770;6.892;2023-02-01T13:26:07;7.70;99.90
52889;DHT22;41413;52.770;6.892;2023-02-01T13:28:42;7.60;99.90
52889;DHT22;41413;52.770;6.892;2023-02-01T13:31:29;7.60;99.90
52889;DHT22;41413;52.770;6.892;2023-02-01T13:37:11;7.50;99.90
52889;DHT22;41413;52.770;6.892;2023-02-01T13:42:30;7.30;99.90
52889;DHT22;41413;52.770;6.892;2023-02-01T13:45:04;7.20;99.90
52889;DHT22;41413;52.770;6.892;2023-02-01T13:47:40;7.20;99.90
52889;DHT22;41413;52.770;6.892;2023-02-01T13:50:19;7.20;99.90
52889;DHT22;41413;52.770;6.892;2023-02-01T13:53:00;7.10;99.90
52889;DHT22;41413;52.770;6.892;2023-02-01T13:55:33;7.20;99.90
52889;DHT22;41413;52.770;6.892;2023-02-01T13:58:15;7.20;99.90
52889;DHT22;41413;52.770;6.892;2023-02-01T14:00:42;7.30;99.90
52889;DHT22;41413;52.770;6.892;2023-02-01T14:08:12;7.10;99.90
52889;DHT22;41413;52.770;6.892;2023-02-01T14:13:36;7.20;99.90
52889;DHT22;41413;52.770;6.892;2023-02-01T14:26:44;7.40;99.90
52889;DHT22;41413;52.770;6.892;2023-02-01T14:31:52;7.30;99.90
52889;DHT22;41413;52.770;6.892;2023-02-01T14:44:47;7.20;99.90
52889;DHT22;41413;52.770;6.892;2023-02-01T14:47:26;7.20;99.90
52889;DHT22;41413;52.770;6.892;2023-02-01T14:50:00;7.20;99.90
52889;DHT22;41413;52.770;6.892;2023-02-01T14:53:02;7.20;99.90
52889;DHT22;41413;52.770;6.892;2023-02-01T14:55:41;7.20;99.90
52889;DHT22;41413;52.770;6.892;2023-02-01T15:01:23;7.20;99.90
52889;DHT22;41413;52.770;6.892;2023-02-01T15:04:10;7.10;99.90
52889;DHT22;41413;52.770;6.892;2023-02-01T15:06:53;7.10;99.90
52889;DHT22;41413;52.770;6.892;2023-02-01T15:09:28;7.20;99.90
52889;DHT22;41413;52.770;6.892;2023-02-01T15:14:45;7.20;99.90
52889;DHT22;41413;52.770;6.892;2023-02-01T15:19:55;7.20;99.90
52889;DHT22;41413;52.770;6.892;2023-02-01T15:22:23;7.20;99.90
52889;DHT22;41413;52.770;6.892;2023-02-01T15:24:54;7.20;99.90
52889;DHT22;41413;52.770;6.892;2023-02-01T15:27:21;7.20;99.90
52889;DHT22;41413;52.770;6.892;2023-02-01T15:29:48;7.20;99.90
52889;DHT22;41413;52.770;6.892;2023-02-01T15:32:29;7.20;99.90
52889;DHT22;41413;52.770;6.892;2023-02-01T15:35:00;7.20;99.90
52889;DHT22;41413;52.770;6.892;2023-02-01T15:37:28;7.10;99.90
52889;DHT22;41413;52.770;6.892;2023-02-01T15:42:52;7.00;99.90
52889;DHT22;41413;52.770;6.892;2023-02-01T15:45:22;7.10;99.90
52889;DHT22;41413;52.770;6.892;2023-02-01T15:47:54;7.00;99.90
52889;DHT22;41413;52.770;6.892;2023-02-01T15:50:21;7.00;99.90
52889;DHT22;41413;52.770;6.892;2023-02-01T15:52:53;7.00;99.90
52889;DHT22;41413;52.770;6.892;2023-02-01T15:55:44;7.00;99.90
52889;DHT22;41413;52.770;6.892;2023-02-01T15:58:23;7.00;99.90
52889;DHT22;41413;52.770;6.892;2023-02-01T16:00:58;7.00;99.90
52889;DHT22;41413;52.770;6.892;2023-02-01T16:09:09;7.10;99.90
52889;DHT22;41413;52.770;6.892;2023-02-01T16:12:03;7.10;99.90
52889;DHT22;41413;52.770;6.892;2023-02-01T16:14:28;7.10;99.90
52889;DHT22;41413;52.770;6.892;2023-02-01T16:16:57;7.00;99.90
52889;DHT22;41413;52.770;6.892;2023-02-01T16:19:24;7.10;99.90
52889;DHT22;41413;52.770;6.892;2023-02-01T16:21:55;7.00;99.90
52889;DHT22;41413;52.770;6.892;2023-02-01T16:24:22;7.00;99.90
52889;DHT22;41413;52.770;6.892;2023-02-01T16:26:51;7.10;99.90
52889;DHT22;41413;52.770;6.892;2023-02-01T16:29:18;7.10;99.90
52889;DHT22;41413;52.770;6.892;2023-02-01T16:31:44;7.00;99.90
52889;DHT22;41413;52.770;6.892;2023-02-01T16:34:16;7.10;99.90
52889;DHT22;41413;52.770;6.892;2023-02-01T16:36:48;7.00;99.90
52889;DHT22;41413;52.770;6.892;2023-02-01T16:39:21;6.90;99.90
52889;DHT22;41413;52.770;6.892;2023-02-01T16:41:49;6.90;99.90
52889;DHT22;41413;52.770;6.892;2023-02-01T16:44:16;6.90;99.90
52889;DHT22;41413;52.770;6.892;2023-02-01T16:46:44;6.90;99.90
52889;DHT22;41413;52.770;6.892;2023-02-01T16:49:23;7.10;99.90
52889;DHT22;41413;52.770;6.892;2023-02-01T16:51:52;7.00;99.90
52889;DHT22;41413;52.770;6.892;2023-02-01T16:54:21;7.00;99.90
52889;DHT22;41413;52.770;6.892;2023-02-01T16:56:48;6.90;99.90
52889;DHT22;41413;52.770;6.892;2023-02-01T16:59:15;6.80;99.90
52889;DHT22;41413;52.770;6.892;2023-02-01T17:01:42;6.80;99.90
52889;DHT22;41413;52.770;6.892;2023-02-01T17:04:10;6.80;99.90
52889;DHT22;41413;52.770;6.892;2023-02-01T17:06:38;6.80;99.90
52889;DHT22;41413;52.770;6.892;2023-02-01T17:09:06;6.80;99.90
52889;DHT22;41413;52.770;6.892;2023-02-01T17:11:33;6.70;99.90
52889;DHT22;41413;52.770;6.892;2023-02-01T17:14:17;6.70;99.90
52889;DHT22;41413;52.770;6.892;2023-02-01T17:16:47;6.60;99.90
52889;DHT22;41413;52.770;6.892;2023-02-01T17:19:17;6.70;99.90
52889;DHT22;41413;52.770;6.892;2023-02-01T17:21:49;6.60;99.90
52889;DHT22;41413;52.770;6.892;2023-02-01T17:24:21;6.50;99.90
52889;DHT22;41413;52.770;6.892;2023-02-01T17:26:48;6.50;99.90
52889;DHT22;41413;52.770;6.892;2023-02-01T17:29:18;6.60;99.90
52889;DHT22;41413;52.770;6.892;2023-02-01T17:31:50;6.60;99.90
52889;DHT22;41413;52.770;6.892;2023-02-01T17:34:17;6.50;99.90
52889;DHT22;41413;52.770;6.892;2023-02-01T17:36:46;6.50;99.90
52889;DHT22;41413;52.770;6.892;2023-02-01T17:39:14;6.60;99.90
52889;DHT22;41413;52.770;6.892;2023-02-01T17:42:08;6.50;99.90
52889;DHT22;41413;52.770;6.892;2023-02-01T17:44:36;6.50;99.90
52889;DHT22;41413;52.770;6.892;2023-02-01T17:47:03;6.50;99.90
52889;DHT22;41413;52.770;6.892;2023-02-01T17:49:29;6.40;99.90
52889;DHT22;41413;52.770;6.892;2023-02-01T17:51:56;6.50;99.90
52889;DHT22;41413;52.770;6.892;2023-02-01T17:54:23;6.40;99.90
52889;DHT22;41413;52.770;6.892;2023-02-01T17:56:51;6.40;99.90
52889;DHT22;41413;52.770;6.892;2023-02-01T17:59:18;6.40;99.90
52889;DHT22;41413;52.770;6.892;2023-02-01T18:01:45;6.50;99.90
52889;DHT22;41413;52.770;6.892;2023-02-01T18:04:15;6.40;99.90
52889;DHT22;41413;52.770;6.892;2023-02-01T18:06:42;6.40;99.90
52889;DHT22;41413;52.770;6.892;2023-02-01T18:09:09;6.30;99.90
52889;DHT22;41413;52.770;6.892;2023-02-01T18:11:36;6.30;99.90
52889;DHT22;41413;52.770;6.892;2023-02-01T18:14:02;6.30;99.90
52889;DHT22;41413;52.770;6.892;2023-02-01T18:16:33;6.30;99.90
52889;DHT22;41413;52.770;6.892;2023-02-01T18:19:00;6.30;99.90
52889;DHT22;41413;52.770;6.892;2023-02-01T18:21:37;6.30;99.90
52889;DHT22;41413;52.770;6.892;2023-02-01T18:24:04;6.20;99.90
52889;DHT22;41413;52.770;6.892;2023-02-01T18:26:31;6.20;99.90
52889;DHT22;41413;52.770;6.892;2023-02-01T18:28:58;6.20;99.90
52889;DHT22;41413;52.770;6.892;2023-02-01T18:31:27;6.20;99.90